sensor_id;sensor_type;location;lat;lon;timestamp;P1;durP1;ratioP1;P2;durP2;ratioP2
26181;SDS011;13927;51.534;11.866;2022-12-18T00:01:31;92.18;;;32.65;;
26181;SDS011;13927;51.534;11.866;2022-12-18T00:04:00;87.00;;;33.83;;
26181;SDS011;13927;51.534;11.866;2022-12-18T00:06:31;72.32;;;32.10;;
26181;SDS011;13927;51.534;11.866;2022-12-18T00:09:00;87.82;;;32.00;;
26181;SDS011;13927;51.534;11.866;2022-12-18T00:11:28;89.05;;;32.88;;
26181;SDS011;13927;51.534;11.866;2022-12-18T00:13:56;80.75;;;32.08;;
26181;SDS011;13927;51.534;11.866;2022-12-18T00:16:24;90.63;;;32.70;;
26181;SDS011;13927;51.534;11.866;2022-12-18T00:18:53;100.22;;;33.50;;
26181;SDS011;13927;51.534;11.866;2022-12-18T00:21:23;85.60;;;32.63;;
26181;SDS011;13927;51.534;11.866;2022-12-18T00:23:49;76.65;;;30.05;;
26181;SDS011;13927;51.534;11.866;2022-12-18T00:26:20;86.53;;;32.67;;
26181;SDS011;13927;51.534;11.866;2022-12-18T00:28:52;79.43;;;29.52;;
26181;SDS011;13927;51.534;11.866;2022-12-18T00:31:21;71.55;;;32.22;;
26181;SDS011;13927;51.534;11.866;2022-12-18T00:33:51;60.85;;;30.40;;
26181;SDS011;13927;51.534;11.866;2022-12-18T00:36:21;63.47;;;32.63;;
26181;SDS011;13927;51.534;11.866;2022-12-18T00:38:53;59.67;;;29.25;;
26181;SDS011;13927;51.534;11.866;2022-12-18T00:41:21;66.72;;;29.80;;
26181;SDS011;13927;51.534;11.866;2022-12-18T00:44:06;66.43;;;30.10;;
26181;SDS011;13927;51.534;11.866;2022-12-18T00:46:37;71.72;;;31.55;;
26181;SDS011;13927;51.534;11.866;2022-12-18T00:49:04;75.68;;;30.85;;
26181;SDS011;13927;51.534;11.866;2022-12-18T00:51:31;75.53;;;29.75;;
26181;SDS011;13927;51.534;11.866;2022-12-18T00:53:57;65.15;;;30.50;;
26181;SDS011;13927;51.534;11.866;2022-12-18T00:56:23;75.68;;;32.30;;
26181;SDS011;13927;51.534;11.866;2022-12-18T00:58:49;57.78;;;30.13;;
26181;SDS011;13927;51.534;11.866;2022-12-18T01:01:15;62.33;;;29.92;;
26181;SDS011;13927;51.534;11.866;2022-12-18T01:03:41;73.18;;;31.98;;
26181;SDS011;13927;51.534;11.866;2022-12-18T01:06:08;68.63;;;29.10;;
26181;SDS011;13927;51.534;11.866;2022-12-18T01:08:37;73.50;;;30.58;;
26181;SDS011;13927;51.534;11.866;2022-12-18T01:11:07;90.45;;;30.95;;
26181;SDS011;13927;51.534;11.866;2022-12-18T01:13:35;65.13;;;30.17;;
26181;SDS011;13927;51.534;11.866;2022-12-18T01:16:01;77.35;;;29.38;;
26181;SDS011;13927;51.534;11.866;2022-12-18T01:18:27;60.35;;;27.88;;
26181;SDS011;13927;51.534;11.866;2022-12-18T01:20:53;65.30;;;28.73;;
26181;SDS011;13927;51.534;11.866;2022-12-18T01:23:19;78.25;;;29.92;;
26181;SDS011;13927;51.534;11.866;2022-12-18T01:25:45;65.22;;;27.75;;
26181;SDS011;13927;51.534;11.866;2022-12-18T01:28:11;98.30;;;29.73;;
26181;SDS011;13927;51.534;11.866;2022-12-18T01:30:37;80.47;;;27.48;;
26181;SDS011;13927;51.534;11.866;2022-12-18T01:33:04;69.97;;;28.25;;
26181;SDS011;13927;51.534;11.866;2022-12-18T01:35:30;60.25;;;27.23;;
26181;SDS011;13927;51.534;11.866;2022-12-18T01:37:56;80.45;;;30.60;;
26181;SDS011;13927;51.534;11.866;2022-12-18T01:40:22;65.82;;;28.45;;
26181;SDS011;13927;51.534;11.866;2022-12-18T01:42:51;68.40;;;29.42;;
26181;SDS011;13927;51.534;11.866;2022-12-18T01:50:40;72.65;;;29.70;;
26181;SDS011;13927;51.534;11.866;2022-12-18T01:53:19;64.10;;;28.30;;
26181;SDS011;13927;51.534;11.866;2022-12-18T01:55:49;66.47;;;29.67;;
26181;SDS011;13927;51.534;11.866;2022-12-18T01:58:18;58.65;;;26.70;;
26181;SDS011;13927;51.534;11.866;2022-12-18T02:00:57;80.13;;;30.38;;
26181;SDS011;13927;51.534;11.866;2022-12-18T02:03:24;71.55;;;27.95;;
26181;SDS011;13927;51.534;11.866;2022-12-18T02:08:55;67.05;;;29.52;;
26181;SDS011;13927;51.534;11.866;2022-12-18T02:14:34;57.15;;;28.10;;
26181;SDS011;13927;51.534;11.866;2022-12-18T02:17:16;55.10;;;26.58;;
26181;SDS011;13927;51.534;11.866;2022-12-18T02:23:39;70.15;;;28.30;;
26181;SDS011;13927;51.534;11.866;2022-12-18T02:29:00;54.28;;;26.13;;
26181;SDS011;13927;51.534;11.866;2022-12-18T02:31:47;53.58;;;27.05;;
26181;SDS011;13927;51.534;11.866;2022-12-18T02:34:18;59.47;;;26.42;;
26181;SDS011;13927;51.534;11.866;2022-12-18T02:36:50;51.10;;;27.00;;
26181;SDS011;13927;51.534;11.866;2022-12-18T02:39:18;58.10;;;26.00;;
26181;SDS011;13927;51.534;11.866;2022-12-18T02:41:46;53.15;;;25.10;;
26181;SDS011;13927;51.534;11.866;2022-12-18T02:44:13;53.72;;;25.52;;
26181;SDS011;13927;51.534;11.866;2022-12-18T02:46:39;59.45;;;28.67;;
26181;SDS011;13927;51.534;11.866;2022-12-18T03:01:50;46.15;;;24.77;;
26181;SDS011;13927;51.534;11.866;2022-12-18T03:04:28;50.15;;;25.40;;
26181;SDS011;13927;51.534;11.866;2022-12-18T03:06:59;50.75;;;24.88;;
26181;SDS011;13927;51.534;11.866;2022-12-18T03:09:33;53.45;;;25.90;;
26181;SDS011;13927;51.534;11.866;2022-12-18T03:12:13;51.95;;;24.02;;
26181;SDS011;13927;51.534;11.866;2022-12-18T03:15:07;52.08;;;25.25;;
26181;SDS011;13927;51.534;11.866;2022-12-18T03:18:01;79.82;;;26.13;;
26181;SDS011;13927;51.534;11.866;2022-12-18T03:20:33;67.78;;;23.27;;
26181;SDS011;13927;51.534;11.866;2022-12-18T03:23:06;62.30;;;23.65;;
26181;SDS011;13927;51.534;11.866;2022-12-18T03:25:40;64.85;;;25.40;;
26181;SDS011;13927;51.534;11.866;2022-12-18T03:28:12;57.05;;;25.77;;
26181;SDS011;13927;51.534;11.866;2022-12-18T03:30:41;72.40;;;27.42;;
26181;SDS011;13927;51.534;11.866;2022-12-18T03:33:21;72.50;;;27.60;;
26181;SDS011;13927;51.534;11.866;2022-12-18T03:35:52;60.00;;;26.95;;
26181;SDS011;13927;51.534;11.866;2022-12-18T03:38:18;68.10;;;27.70;;
26181;SDS011;13927;51.534;11.866;2022-12-18T03:40:50;53.03;;;25.75;;
26181;SDS011;13927;51.534;11.866;2022-12-18T03:44:13;65.30;;;26.98;;
26181;SDS011;13927;51.534;11.866;2022-12-18T03:50:11;54.83;;;24.23;;
26181;SDS011;13927;51.534;11.866;2022-12-18T03:53:00;49.65;;;24.33;;
26181;SDS011;13927;51.534;11.866;2022-12-18T03:55:36;54.28;;;24.63;;
26181;SDS011;13927;51.534;11.866;2022-12-18T03:58:03;58.80;;;24.73;;
26181;SDS011;13927;51.534;11.866;2022-12-18T04:00:33;63.88;;;26.48;;
26181;SDS011;13927;51.534;11.866;2022-12-18T04:03:00;70.68;;;26.38;;
26181;SDS011;13927;51.534;11.866;2022-12-18T04:05:28;61.72;;;26.98;;
26181;SDS011;13927;51.534;11.866;2022-12-18T04:07:56;60.15;;;25.90;;
26181;SDS011;13927;51.534;11.866;2022-12-18T04:10:23;61.40;;;25.92;;
26181;SDS011;13927;51.534;11.866;2022-12-18T04:12:50;67.43;;;28.67;;
26181;SDS011;13927;51.534;11.866;2022-12-18T04:15:20;68.75;;;26.52;;
26181;SDS011;13927;51.534;11.866;2022-12-18T04:17:47;63.13;;;27.75;;
26181;SDS011;13927;51.534;11.866;2022-12-18T04:20:14;74.88;;;27.80;;
26181;SDS011;13927;51.534;11.866;2022-12-18T04:22:40;62.80;;;24.83;;
26181;SDS011;13927;51.534;11.866;2022-12-18T04:25:08;69.82;;;25.90;;
26181;SDS011;13927;51.534;11.866;2022-12-18T04:27:34;61.95;;;25.75;;
26181;SDS011;13927;51.534;11.866;2022-12-18T04:30:00;55.63;;;23.75;;
26181;SDS011;13927;51.534;11.866;2022-12-18T04:32:26;59.17;;;24.48;;
26181;SDS011;13927;51.534;11.866;2022-12-18T04:34:51;63.38;;;24.15;;
26181;SDS011;13927;51.534;11.866;2022-12-18T04:37:17;70.38;;;25.08;;
26181;SDS011;13927;51.534;11.866;2022-12-18T04:39:43;65.32;;;24.27;;
26181;SDS011;13927;51.534;11.866;2022-12-18T04:42:09;58.05;;;25.73;;
26181;SDS011;13927;51.534;11.866;2022-12-18T04:44:35;53.55;;;24.10;;
26181;SDS011;13927;51.534;11.866;2022-12-18T04:47:01;76.03;;;25.08;;
26181;SDS011;13927;51.534;11.866;2022-12-18T04:49:30;51.25;;;23.58;;
26181;SDS011;13927;51.534;11.866;2022-12-18T04:51:56;62.97;;;24.42;;
26181;SDS011;13927;51.534;11.866;2022-12-18T04:54:22;54.45;;;23.60;;
26181;SDS011;13927;51.534;11.866;2022-12-18T04:56:48;51.85;;;23.00;;
26181;SDS011;13927;51.534;11.866;2022-12-18T04:59:14;56.45;;;24.75;;
26181;SDS011;13927;51.534;11.866;2022-12-18T05:01:40;80.55;;;23.90;;
26181;SDS011;13927;51.534;11.866;2022-12-18T05:04:05;63.75;;;23.40;;
26181;SDS011;13927;51.534;11.866;2022-12-18T05:06:31;62.70;;;23.67;;
26181;SDS011;13927;51.534;11.866;2022-12-18T05:08:57;44.40;;;22.77;;
26181;SDS011;13927;51.534;11.866;2022-12-18T05:11:23;54.03;;;24.25;;
26181;SDS011;13927;51.534;11.866;2022-12-18T05:13:48;51.13;;;24.13;;
26181;SDS011;13927;51.534;11.866;2022-12-18T05:16:14;48.30;;;23.23;;
26181;SDS011;13927;51.534;11.866;2022-12-18T05:18:41;49.47;;;24.45;;
26181;SDS011;13927;51.534;11.866;2022-12-18T05:21:06;55.17;;;24.08;;
26181;SDS011;13927;51.534;11.866;2022-12-18T05:23:32;50.10;;;23.85;;
26181;SDS011;13927;51.534;11.866;2022-12-18T05:25:59;46.83;;;22.60;;
26181;SDS011;13927;51.534;11.866;2022-12-18T05:28:27;58.45;;;21.30;;
26181;SDS011;13927;51.534;11.866;2022-12-18T05:30:59;52.25;;;22.48;;
26181;SDS011;13927;51.534;11.866;2022-12-18T05:33:29;50.83;;;21.77;;
26181;SDS011;13927;51.534;11.866;2022-12-18T05:35:58;50.65;;;22.00;;
26181;SDS011;13927;51.534;11.866;2022-12-18T05:38:32;43.38;;;21.48;;
26181;SDS011;13927;51.534;11.866;2022-12-18T05:41:00;52.33;;;20.70;;
26181;SDS011;13927;51.534;11.866;2022-12-18T05:43:27;45.80;;;21.73;;
26181;SDS011;13927;51.534;11.866;2022-12-18T05:45:53;51.45;;;20.85;;
26181;SDS011;13927;51.534;11.866;2022-12-18T05:48:24;51.10;;;20.77;;
26181;SDS011;13927;51.534;11.866;2022-12-18T05:50:50;44.40;;;20.77;;
26181;SDS011;13927;51.534;11.866;2022-12-18T05:53:17;40.90;;;20.08;;
26181;SDS011;13927;51.534;11.866;2022-12-18T05:55:45;42.75;;;21.40;;
26181;SDS011;13927;51.534;11.866;2022-12-18T05:58:12;45.75;;;21.13;;
26181;SDS011;13927;51.534;11.866;2022-12-18T06:00:40;43.40;;;20.75;;
26181;SDS011;13927;51.534;11.866;2022-12-18T06:03:10;42.65;;;20.10;;
26181;SDS011;13927;51.534;11.866;2022-12-18T06:05:37;40.40;;;20.75;;
26181;SDS011;13927;51.534;11.866;2022-12-18T06:10:37;33.95;;;18.25;;
26181;SDS011;13927;51.534;11.866;2022-12-18T06:13:03;36.10;;;18.42;;
26181;SDS011;13927;51.534;11.866;2022-12-18T06:15:30;30.98;;;18.85;;
26181;SDS011;13927;51.534;11.866;2022-12-18T06:17:56;40.53;;;20.40;;
26181;SDS011;13927;51.534;11.866;2022-12-18T06:20:25;36.45;;;18.15;;
26181;SDS011;13927;51.534;11.866;2022-12-18T06:22:51;40.70;;;20.42;;
26181;SDS011;13927;51.534;11.866;2022-12-18T06:25:17;30.88;;;18.52;;
26181;SDS011;13927;51.534;11.866;2022-12-18T06:27:43;35.90;;;18.08;;
26181;SDS011;13927;51.534;11.866;2022-12-18T06:30:09;33.58;;;16.75;;
26181;SDS011;13927;51.534;11.866;2022-12-18T06:32:38;36.53;;;18.45;;
26181;SDS011;13927;51.534;11.866;2022-12-18T06:35:03;31.88;;;17.48;;
26181;SDS011;13927;51.534;11.866;2022-12-18T06:37:30;38.95;;;17.25;;
26181;SDS011;13927;51.534;11.866;2022-12-18T06:39:56;36.42;;;16.88;;
26181;SDS011;13927;51.534;11.866;2022-12-18T06:42:22;34.30;;;17.38;;
26181;SDS011;13927;51.534;11.866;2022-12-18T06:44:49;40.40;;;17.83;;
26181;SDS011;13927;51.534;11.866;2022-12-18T06:47:15;33.55;;;17.05;;
26181;SDS011;13927;51.534;11.866;2022-12-18T06:49:41;38.08;;;17.23;;
26181;SDS011;13927;51.534;11.866;2022-12-18T06:52:08;37.78;;;17.15;;
26181;SDS011;13927;51.534;11.866;2022-12-18T06:54:36;40.33;;;19.10;;
26181;SDS011;13927;51.534;11.866;2022-12-18T06:57:03;31.27;;;17.00;;
26181;SDS011;13927;51.534;11.866;2022-12-18T06:59:30;38.83;;;17.08;;
26181;SDS011;13927;51.534;11.866;2022-12-18T07:01:57;34.95;;;17.05;;
26181;SDS011;13927;51.534;11.866;2022-12-18T07:04:27;36.45;;;15.20;;
26181;SDS011;13927;51.534;11.866;2022-12-18T07:06:54;30.83;;;15.38;;
26181;SDS011;13927;51.534;11.866;2022-12-18T07:09:22;30.08;;;15.15;;
26181;SDS011;13927;51.534;11.866;2022-12-18T07:11:48;29.88;;;15.85;;
26181;SDS011;13927;51.534;11.866;2022-12-18T07:14:14;32.60;;;16.27;;
26181;SDS011;13927;51.534;11.866;2022-12-18T07:16:39;33.60;;;15.93;;
26181;SDS011;13927;51.534;11.866;2022-12-18T07:19:05;33.63;;;16.00;;
26181;SDS011;13927;51.534;11.866;2022-12-18T07:21:31;39.30;;;17.65;;
26181;SDS011;13927;51.534;11.866;2022-12-18T07:23:57;44.88;;;19.35;;
26181;SDS011;13927;51.534;11.866;2022-12-18T07:26:22;36.70;;;17.92;;
26181;SDS011;13927;51.534;11.866;2022-12-18T07:28:48;35.60;;;17.63;;
26181;SDS011;13927;51.534;11.866;2022-12-18T07:31:16;32.30;;;16.23;;
26181;SDS011;13927;51.534;11.866;2022-12-18T07:33:45;41.00;;;17.30;;
26181;SDS011;13927;51.534;11.866;2022-12-18T07:36:12;42.25;;;15.43;;
26181;SDS011;13927;51.534;11.866;2022-12-18T07:38:38;31.70;;;15.95;;
26181;SDS011;13927;51.534;11.866;2022-12-18T07:41:05;31.55;;;15.40;;
26181;SDS011;13927;51.534;11.866;2022-12-18T07:43:34;36.40;;;15.80;;
26181;SDS011;13927;51.534;11.866;2022-12-18T07:46:01;31.23;;;15.98;;
26181;SDS011;13927;51.534;11.866;2022-12-18T07:48:28;32.20;;;16.65;;
26181;SDS011;13927;51.534;11.866;2022-12-18T07:50:57;31.65;;;16.52;;
26181;SDS011;13927;51.534;11.866;2022-12-18T07:53:31;33.97;;;17.00;;
26181;SDS011;13927;51.534;11.866;2022-12-18T07:55:58;32.65;;;16.27;;
26181;SDS011;13927;51.534;11.866;2022-12-18T07:58:28;32.22;;;15.55;;
26181;SDS011;13927;51.534;11.866;2022-12-18T08:01:01;36.20;;;17.13;;
26181;SDS011;13927;51.534;11.866;2022-12-18T08:03:32;49.03;;;20.13;;
26181;SDS011;13927;51.534;11.866;2022-12-18T08:06:12;33.95;;;18.65;;
26181;SDS011;13927;51.534;11.866;2022-12-18T08:08:37;35.65;;;17.75;;
26181;SDS011;13927;51.534;11.866;2022-12-18T08:11:05;45.20;;;20.00;;
26181;SDS011;13927;51.534;11.866;2022-12-18T08:13:31;45.35;;;18.33;;
26181;SDS011;13927;51.534;11.866;2022-12-18T08:16:01;39.40;;;19.13;;
26181;SDS011;13927;51.534;11.866;2022-12-18T08:18:33;35.47;;;17.27;;
26181;SDS011;13927;51.534;11.866;2022-12-18T08:21:12;36.83;;;17.85;;
26181;SDS011;13927;51.534;11.866;2022-12-18T08:23:45;34.67;;;17.38;;
26181;SDS011;13927;51.534;11.866;2022-12-18T08:26:11;38.95;;;18.75;;
26181;SDS011;13927;51.534;11.866;2022-12-18T08:28:38;38.50;;;18.65;;
26181;SDS011;13927;51.534;11.866;2022-12-18T08:31:04;35.47;;;17.67;;
26181;SDS011;13927;51.534;11.866;2022-12-18T08:33:30;36.80;;;18.15;;
26181;SDS011;13927;51.534;11.866;2022-12-18T08:36:00;31.85;;;17.08;;
26181;SDS011;13927;51.534;11.866;2022-12-18T08:38:27;37.05;;;19.92;;
26181;SDS011;13927;51.534;11.866;2022-12-18T08:41:03;34.58;;;19.30;;
26181;SDS011;13927;51.534;11.866;2022-12-18T08:43:45;37.42;;;19.90;;
26181;SDS011;13927;51.534;11.866;2022-12-18T08:46:34;38.83;;;20.25;;
26181;SDS011;13927;51.534;11.866;2022-12-18T08:49:04;38.70;;;19.70;;
26181;SDS011;13927;51.534;11.866;2022-12-18T08:51:31;33.97;;;20.17;;
26181;SDS011;13927;51.534;11.866;2022-12-18T08:53:58;43.58;;;22.05;;
26181;SDS011;13927;51.534;11.866;2022-12-18T08:56:23;32.85;;;19.38;;
26181;SDS011;13927;51.534;11.866;2022-12-18T08:58:53;38.80;;;21.15;;
26181;SDS011;13927;51.534;11.866;2022-12-18T09:01:19;38.38;;;20.55;;
26181;SDS011;13927;51.534;11.866;2022-12-18T09:03:47;37.90;;;20.67;;
26181;SDS011;13927;51.534;11.866;2022-12-18T09:06:14;37.25;;;20.42;;
26181;SDS011;13927;51.534;11.866;2022-12-18T09:08:44;37.97;;;20.90;;
26181;SDS011;13927;51.534;11.866;2022-12-18T09:11:24;36.47;;;19.88;;
26181;SDS011;13927;51.534;11.866;2022-12-18T09:13:52;39.67;;;21.88;;
26181;SDS011;13927;51.534;11.866;2022-12-18T09:16:18;34.78;;;21.20;;
26181;SDS011;13927;51.534;11.866;2022-12-18T09:18:46;32.08;;;18.95;;
26181;SDS011;13927;51.534;11.866;2022-12-18T09:21:13;34.15;;;20.35;;
26181;SDS011;13927;51.534;11.866;2022-12-18T09:26:18;36.60;;;20.15;;
26181;SDS011;13927;51.534;11.866;2022-12-18T09:28:45;36.42;;;21.55;;
26181;SDS011;13927;51.534;11.866;2022-12-18T09:31:11;35.22;;;20.80;;
26181;SDS011;13927;51.534;11.866;2022-12-18T09:33:38;39.33;;;21.83;;
26181;SDS011;13927;51.534;11.866;2022-12-18T09:36:04;32.35;;;19.90;;
26181;SDS011;13927;51.534;11.866;2022-12-18T09:38:33;33.10;;;20.88;;
26181;SDS011;13927;51.534;11.866;2022-12-18T09:41:04;34.53;;;20.52;;
26181;SDS011;13927;51.534;11.866;2022-12-18T09:43:51;38.45;;;22.02;;
26181;SDS011;13927;51.534;11.866;2022-12-18T09:46:25;37.30;;;21.10;;
26181;SDS011;13927;51.534;11.866;2022-12-18T09:48:56;32.80;;;19.80;;
26181;SDS011;13927;51.534;11.866;2022-12-18T09:51:35;33.10;;;20.27;;
26181;SDS011;13927;51.534;11.866;2022-12-18T09:54:14;30.63;;;19.15;;
26181;SDS011;13927;51.534;11.866;2022-12-18T09:56:47;37.03;;;20.60;;
26181;SDS011;13927;51.534;11.866;2022-12-18T10:02:39;36.97;;;21.25;;
26181;SDS011;13927;51.534;11.866;2022-12-18T10:05:14;35.50;;;21.15;;
26181;SDS011;13927;51.534;11.866;2022-12-18T10:10:40;37.70;;;22.13;;
26181;SDS011;13927;51.534;11.866;2022-12-18T10:21:56;27.92;;;16.83;;
26181;SDS011;13927;51.534;11.866;2022-12-18T10:27:24;43.30;;;23.05;;
26181;SDS011;13927;51.534;11.866;2022-12-18T10:29:52;36.72;;;22.55;;
26181;SDS011;13927;51.534;11.866;2022-12-18T10:32:31;37.10;;;21.50;;
26181;SDS011;13927;51.534;11.866;2022-12-18T10:34:57;37.08;;;22.45;;
26181;SDS011;13927;51.534;11.866;2022-12-18T10:37:24;38.75;;;23.50;;
26181;SDS011;13927;51.534;11.866;2022-12-18T10:40:12;41.28;;;23.88;;
26181;SDS011;13927;51.534;11.866;2022-12-18T10:42:40;40.17;;;23.55;;
26181;SDS011;13927;51.534;11.866;2022-12-18T10:45:15;38.05;;;24.17;;
26181;SDS011;13927;51.534;11.866;2022-12-18T10:47:46;41.85;;;23.90;;
26181;SDS011;13927;51.534;11.866;2022-12-18T10:50:18;34.57;;;23.73;;
26181;SDS011;13927;51.534;11.866;2022-12-18T10:52:55;40.85;;;24.70;;
26181;SDS011;13927;51.534;11.866;2022-12-18T10:55:24;39.20;;;23.42;;
26181;SDS011;13927;51.534;11.866;2022-12-18T10:58:47;39.92;;;24.95;;
26181;SDS011;13927;51.534;11.866;2022-12-18T11:03:46;34.97;;;24.20;;
26181;SDS011;13927;51.534;11.866;2022-12-18T11:06:26;40.75;;;23.60;;
26181;SDS011;13927;51.534;11.866;2022-12-18T11:11:29;57.40;;;34.65;;
26181;SDS011;13927;51.534;11.866;2022-12-18T11:14:04;75.07;;;50.13;;
26181;SDS011;13927;51.534;11.866;2022-12-18T11:16:45;45.20;;;26.10;;
26181;SDS011;13927;51.534;11.866;2022-12-18T11:25:52;41.90;;;25.20;;
26181;SDS011;13927;51.534;11.866;2022-12-18T11:28:43;40.15;;;24.08;;
26181;SDS011;13927;51.534;11.866;2022-12-18T11:36:39;30.27;;;21.25;;
26181;SDS011;13927;51.534;11.866;2022-12-18T11:39:11;33.60;;;22.25;;
26181;SDS011;13927;51.534;11.866;2022-12-18T11:44:51;34.72;;;21.52;;
26181;SDS011;13927;51.534;11.866;2022-12-18T11:47:34;37.08;;;22.00;;
26181;SDS011;13927;51.534;11.866;2022-12-18T11:50:26;33.30;;;21.83;;
26181;SDS011;13927;51.534;11.866;2022-12-18T11:52:59;38.35;;;21.25;;
26181;SDS011;13927;51.534;11.866;2022-12-18T11:58:35;29.92;;;20.10;;
26181;SDS011;13927;51.534;11.866;2022-12-18T12:08:19;29.25;;;20.70;;
26181;SDS011;13927;51.534;11.866;2022-12-18T12:11:25;33.95;;;20.75;;
26181;SDS011;13927;51.534;11.866;2022-12-18T12:29:25;35.40;;;20.88;;
26181;SDS011;13927;51.534;11.866;2022-12-18T12:38:19;26.83;;;16.30;;
26181;SDS011;13927;51.534;11.866;2022-12-18T12:40:54;25.37;;;17.03;;
26181;SDS011;13927;51.534;11.866;2022-12-18T12:46:12;34.97;;;22.00;;
26181;SDS011;13927;51.534;11.866;2022-12-18T12:48:44;34.80;;;22.08;;
26181;SDS011;13927;51.534;11.866;2022-12-18T12:53:46;32.65;;;20.95;;
26181;SDS011;13927;51.534;11.866;2022-12-18T12:56:14;30.88;;;21.48;;
26181;SDS011;13927;51.534;11.866;2022-12-18T13:01:55;32.80;;;21.25;;
26181;SDS011;13927;51.534;11.866;2022-12-18T13:04:41;29.08;;;19.63;;
26181;SDS011;13927;51.534;11.866;2022-12-18T13:15:48;30.85;;;20.50;;
26181;SDS011;13927;51.534;11.866;2022-12-18T13:18:30;31.92;;;22.85;;
26181;SDS011;13927;51.534;11.866;2022-12-18T13:25:56;42.80;;;24.30;;
26181;SDS011;13927;51.534;11.866;2022-12-18T13:34:48;34.13;;;23.70;;
26181;SDS011;13927;51.534;11.866;2022-12-18T13:43:15;33.05;;;21.40;;
26181;SDS011;13927;51.534;11.866;2022-12-18T13:45:45;37.10;;;23.45;;
26181;SDS011;13927;51.534;11.866;2022-12-18T13:48:30;34.80;;;22.45;;
26181;SDS011;13927;51.534;11.866;2022-12-18T13:53:36;30.90;;;21.25;;
26181;SDS011;13927;51.534;11.866;2022-12-18T13:56:18;39.03;;;21.48;;
26181;SDS011;13927;51.534;11.866;2022-12-18T13:59:26;30.50;;;19.10;;
26181;SDS011;13927;51.534;11.866;2022-12-18T14:02:00;29.65;;;19.35;;
26181;SDS011;13927;51.534;11.866;2022-12-18T14:04:40;35.17;;;19.70;;
26181;SDS011;13927;51.534;11.866;2022-12-18T14:07:11;31.38;;;19.92;;
26181;SDS011;13927;51.534;11.866;2022-12-18T14:09:59;28.75;;;17.38;;
26181;SDS011;13927;51.534;11.866;2022-12-18T14:12:30;23.75;;;14.15;;
26181;SDS011;13927;51.534;11.866;2022-12-18T14:17:54;21.50;;;14.05;;
26181;SDS011;13927;51.534;11.866;2022-12-18T14:20:27;27.02;;;15.82;;
26181;SDS011;13927;51.534;11.866;2022-12-18T14:23:01;22.88;;;15.13;;
26181;SDS011;13927;51.534;11.866;2022-12-18T14:25:27;29.67;;;17.05;;
26181;SDS011;13927;51.534;11.866;2022-12-18T14:30:36;28.35;;;16.98;;
26181;SDS011;13927;51.534;11.866;2022-12-18T14:35:34;28.98;;;17.83;;
26181;SDS011;13927;51.534;11.866;2022-12-18T14:40:55;28.90;;;18.15;;
26181;SDS011;13927;51.534;11.866;2022-12-18T14:43:27;29.83;;;18.35;;
26181;SDS011;13927;51.534;11.866;2022-12-18T14:45:58;31.98;;;19.10;;
26181;SDS011;13927;51.534;11.866;2022-12-18T14:48:36;31.90;;;19.88;;
26181;SDS011;13927;51.534;11.866;2022-12-18T14:53:39;44.38;;;25.88;;
26181;SDS011;13927;51.534;11.866;2022-12-18T14:59:23;38.47;;;21.33;;
26181;SDS011;13927;51.534;11.866;2022-12-18T15:04:46;33.83;;;20.25;;
26181;SDS011;13927;51.534;11.866;2022-12-18T15:07:14;34.75;;;19.75;;
26181;SDS011;13927;51.534;11.866;2022-12-18T15:10:09;33.00;;;20.02;;
26181;SDS011;13927;51.534;11.866;2022-12-18T15:12:41;31.75;;;19.50;;
26181;SDS011;13927;51.534;11.866;2022-12-18T15:18:01;28.80;;;17.65;;
26181;SDS011;13927;51.534;11.866;2022-12-18T15:20:41;29.20;;;17.00;;
26181;SDS011;13927;51.534;11.866;2022-12-18T15:25:56;29.10;;;16.73;;
26181;SDS011;13927;51.534;11.866;2022-12-18T15:28:26;28.75;;;17.05;;
26181;SDS011;13927;51.534;11.866;2022-12-18T15:36:24;38.40;;;22.33;;
26181;SDS011;13927;51.534;11.866;2022-12-18T15:38:51;45.05;;;25.88;;
26181;SDS011;13927;51.534;11.866;2022-12-18T15:41:18;56.15;;;30.48;;
26181;SDS011;13927;51.534;11.866;2022-12-18T15:43:46;56.38;;;30.15;;
26181;SDS011;13927;51.534;11.866;2022-12-18T15:51:16;55.20;;;33.30;;
26181;SDS011;13927;51.534;11.866;2022-12-18T15:53:58;43.42;;;26.52;;
26181;SDS011;13927;51.534;11.866;2022-12-18T15:56:28;44.10;;;24.00;;
26181;SDS011;13927;51.534;11.866;2022-12-18T15:59:13;42.45;;;23.08;;
26181;SDS011;13927;51.534;11.866;2022-12-18T16:01:43;38.10;;;23.00;;
26181;SDS011;13927;51.534;11.866;2022-12-18T16:04:14;40.13;;;21.77;;
26181;SDS011;13927;51.534;11.866;2022-12-18T16:06:45;36.35;;;20.27;;
26181;SDS011;13927;51.534;11.866;2022-12-18T16:09:11;31.90;;;19.20;;
26181;SDS011;13927;51.534;11.866;2022-12-18T16:11:37;33.78;;;20.10;;
26181;SDS011;13927;51.534;11.866;2022-12-18T16:16:44;47.90;;;26.65;;
26181;SDS011;13927;51.534;11.866;2022-12-18T16:19:11;48.15;;;26.48;;
26181;SDS011;13927;51.534;11.866;2022-12-18T16:24:08;36.50;;;20.02;;
26181;SDS011;13927;51.534;11.866;2022-12-18T16:26:47;37.28;;;19.80;;
26181;SDS011;13927;51.534;11.866;2022-12-18T16:29:16;37.20;;;20.70;;
26181;SDS011;13927;51.534;11.866;2022-12-18T16:31:43;37.85;;;19.38;;
26181;SDS011;13927;51.534;11.866;2022-12-18T16:34:18;37.33;;;20.67;;
26181;SDS011;13927;51.534;11.866;2022-12-18T16:36:55;32.17;;;19.13;;
26181;SDS011;13927;51.534;11.866;2022-12-18T16:39:29;38.67;;;20.30;;
26181;SDS011;13927;51.534;11.866;2022-12-18T16:42:03;38.08;;;19.98;;
26181;SDS011;13927;51.534;11.866;2022-12-18T16:44:34;36.75;;;19.50;;
26181;SDS011;13927;51.534;11.866;2022-12-18T16:47:00;37.72;;;21.95;;
26181;SDS011;13927;51.534;11.866;2022-12-18T16:49:27;40.30;;;20.63;;
26181;SDS011;13927;51.534;11.866;2022-12-18T16:51:53;37.67;;;20.88;;
26181;SDS011;13927;51.534;11.866;2022-12-18T16:54:20;39.55;;;21.42;;
26181;SDS011;13927;51.534;11.866;2022-12-18T16:56:46;36.55;;;20.15;;
26181;SDS011;13927;51.534;11.866;2022-12-18T16:59:18;33.78;;;21.23;;
26181;SDS011;13927;51.534;11.866;2022-12-18T17:01:44;38.13;;;20.35;;
26181;SDS011;13927;51.534;11.866;2022-12-18T17:04:09;37.22;;;20.95;;
26181;SDS011;13927;51.534;11.866;2022-12-18T17:06:38;37.15;;;21.25;;
26181;SDS011;13927;51.534;11.866;2022-12-18T17:11:40;37.40;;;19.67;;
26181;SDS011;13927;51.534;11.866;2022-12-18T17:14:06;38.10;;;21.35;;
26181;SDS011;13927;51.534;11.866;2022-12-18T17:16:39;42.65;;;22.67;;
26181;SDS011;13927;51.534;11.866;2022-12-18T17:19:06;45.63;;;22.20;;
26181;SDS011;13927;51.534;11.866;2022-12-18T17:21:32;38.53;;;22.25;;
26181;SDS011;13927;51.534;11.866;2022-12-18T17:24:01;37.72;;;21.13;;
26181;SDS011;13927;51.534;11.866;2022-12-18T17:26:28;39.15;;;22.33;;
26181;SDS011;13927;51.534;11.866;2022-12-18T17:28:55;36.92;;;21.92;;
26181;SDS011;13927;51.534;11.866;2022-12-18T17:31:37;43.67;;;23.42;;
26181;SDS011;13927;51.534;11.866;2022-12-18T17:34:04;44.45;;;23.73;;
26181;SDS011;13927;51.534;11.866;2022-12-18T17:36:30;43.55;;;22.83;;
26181;SDS011;13927;51.534;11.866;2022-12-18T17:38:57;43.53;;;22.77;;